Time;durP1;ratioP1;P1;durP2;ratioP2;P2;SDS_P1;SDS_P2;PMS_P1;PMS_P2;Temp;Humidity;BMP_temperature;BMP_pressure;BME280_temperature;BME280_humidity;BME280_pressure;Samples;Min_cycle;Max_cycle;Signal;HPM_P1;HPM_P2
2021/03/06 00:00:24;;;;;;;0.40;0.40;;;0.10;99.90;;;;;;5053502;28;20166;-68
2021/03/06 00:02:51;;;;;;;0.40;0.40;;;0.00;99.90;;;;;;5060312;28;20179;-68
2021/03/06 00:05:18;;;;;;;0.40;0.40;;;0.00;99.90;;;;;;5052873;28;20564;-67
2021/03/06 00:07:44;;;;;;;0.40;0.40;;;0.00;99.90;;;;;;5055373;28;20176;-68
2021/03/06 00:10:12;;;;;;;0.40;0.40;;;0.00;99.90;;;;;;5071737;28;20169;-68
2021/03/06 00:12:43;;;;;;;0.50;0.50;;;0.00;99.90;;;;;;5053117;28;20551;-68
2021/03/06 00:15:10;;;;;;;0.40;0.40;;;0.00;99.90;;;;;;5072911;28;20673;-68
2021/03/06 00:17:36;;;;;;;0.40;0.40;;;0.00;99.90;;;;;;5058425;28;20180;-68
2021/03/06 00:20:03;;;;;;;0.43;0.43;;;0.00;99.90;;;;;;5073008;28;20183;-67
2021/03/06 00:22:29;;;;;;;0.40;0.40;;;0.00;99.90;;;;;;5073260;28;20655;-67
2021/03/06 00:24:56;;;;;;;0.30;0.30;;;0.00;99.90;;;;;;5054148;28;20205;-67
2021/03/06 00:27:21;;;;;;;0.40;0.40;;;0.10;99.90;;;;;;5053434;28;20185;-68
2021/03/06 00:29:47;;;;;;;0.40;0.40;;;0.00;99.90;;;;;;5069470;28;20272;-67
2021/03/06 00:32:13;;;;;;;0.40;0.40;;;-0.10;99.90;;;;;;5060993;28;20205;-67
2021/03/06 00:34:38;;;;;;;0.40;0.40;;;-0.10;99.90;;;;;;5053182;28;20232;-67
2021/03/06 00:37:04;;;;;;;0.50;0.50;;;0.00;99.90;;;;;;5062859;28;20161;-67
2021/03/06 00:39:29;;;;;;;0.40;0.40;;;0.00;99.90;;;;;;5052974;28;20165;-68
2021/03/06 00:41:55;;;;;;;0.40;0.40;;;0.00;99.90;;;;;;5060566;28;20602;-67
2021/03/06 00:44:21;;;;;;;0.40;0.40;;;0.00;99.90;;;;;;5067853;28;20177;-68
2021/03/06 00:46:46;;;;;;;0.40;0.40;;;0.00;99.90;;;;;;5070808;28;20204;-67
2021/03/06 00:49:20;;;;;;;0.40;0.40;;;-0.10;99.90;;;;;;5070081;28;20188;-67
2021/03/06 00:51:46;;;;;;;0.40;0.40;;;-0.10;99.90;;;;;;5052726;28;20288;-68
2021/03/06 00:54:12;;;;;;;0.55;0.55;;;-0.10;99.90;;;;;;5053921;28;20171;-68
2021/03/06 00:56:38;;;;;;;0.47;0.47;;;-0.10;99.90;;;;;;5061617;28;20347;-67
2021/03/06 00:59:04;;;;;;;0.40;0.40;;;-0.20;99.90;;;;;;5072531;28;20165;-66
2021/03/06 01:01:30;;;;;;;0.60;0.60;;;-0.20;99.90;;;;;;5052699;28;20916;-67
2021/03/06 01:03:56;;;;;;;0.40;0.40;;;-0.20;99.90;;;;;;5052402;28;20708;-66
2021/03/06 01:06:21;;;;;;;0.50;0.50;;;-0.20;99.90;;;;;;5054123;28;20586;-66
2021/03/06 01:08:47;;;;;;;0.40;0.40;;;-0.30;99.90;;;;;;5052670;28;20174;-67
2021/03/06 01:11:13;;;;;;;0.40;0.40;;;-0.30;99.90;;;;;;5068748;28;20501;-67
2021/03/06 01:13:39;;;;;;;0.40;0.40;;;-0.30;99.90;;;;;;5072036;28;20652;-67
2021/03/06 01:16:05;;;;;;;0.40;0.40;;;-0.30;99.90;;;;;;5056958;28;20486;-67
2021/03/06 01:18:31;;;;;;;0.40;0.40;;;-0.30;99.90;;;;;;5053041;28;20315;-67
2021/03/06 01:20:56;;;;;;;0.40;0.40;;;-0.40;99.90;;;;;;5052461;28;20169;-67
2021/03/06 01:23:22;;;;;;;0.40;0.40;;;-0.40;99.90;;;;;;5055748;28;20404;-66
2021/03/06 01:25:48;;;;;;;0.40;0.40;;;-0.40;99.90;;;;;;5064485;28;20193;-68
2021/03/06 01:28:14;;;;;;;0.40;0.40;;;-0.40;99.90;;;;;;5056455;28;20173;-66
2021/03/06 01:30:39;;;;;;;0.40;0.40;;;-0.50;99.90;;;;;;5056990;28;20182;-67
2021/03/06 01:33:06;;;;;;;0.40;0.40;;;-0.50;99.90;;;;;;5056118;28;20846;-67
2021/03/06 01:35:32;;;;;;;0.40;0.40;;;-0.60;99.90;;;;;;5063692;28;20192;-67
2021/03/06 01:37:58;;;;;;;0.40;0.40;;;-0.60;99.90;;;;;;5075650;28;20696;-67
2021/03/06 01:40:34;;;;;;;0.40;0.40;;;-0.60;99.90;;;;;;5058783;28;20177;-67
2021/03/06 01:43:07;;;;;;;0.40;0.40;;;-0.60;99.90;;;;;;5057145;28;20169;-67
2021/03/06 01:45:33;;;;;;;0.40;0.40;;;-0.50;99.90;;;;;;5056290;28;20208;-67
2021/03/06 01:47:59;;;;;;;0.40;0.40;;;-0.60;99.90;;;;;;5056767;28;20170;-67
2021/03/06 01:50:31;;;;;;;0.40;0.40;;;-0.60;99.90;;;;;;5075677;28;20683;-67
2021/03/06 01:52:58;;;;;;;0.40;0.40;;;-0.50;99.90;;;;;;5074773;28;20854;-68
2021/03/06 01:55:25;;;;;;;0.40;0.40;;;-0.60;99.90;;;;;;5075164;28;20193;-65
2021/03/06 01:57:52;;;;;;;0.40;0.40;;;-0.60;99.90;;;;;;5075666;28;20632;-66
2021/03/06 02:00:20;;;;;;;0.40;0.40;;;-0.60;99.90;;;;;;5056082;28;20186;-67
2021/03/06 02:02:47;;;;;;;0.50;0.50;;;-0.70;99.90;;;;;;5063263;28;20731;-65
2021/03/06 02:05:13;;;;;;;0.40;0.40;;;-0.70;99.90;;;;;;5055238;28;20210;-66
2021/03/06 02:07:38;;;;;;;0.40;0.40;;;-0.70;99.90;;;;;;5061884;28;20173;-67
2021/03/06 02:10:05;;;;;;;0.50;0.50;;;-0.70;99.90;;;;;;5075535;28;20191;-66
2021/03/06 02:12:37;;;;;;;0.50;0.50;;;-0.80;99.90;;;;;;5069452;28;20602;-64
2021/03/06 02:15:15;;;;;;;0.40;0.40;;;-0.80;99.90;;;;;;5075061;28;20531;-66
2021/03/06 02:17:52;;;;;;;0.40;0.40;;;-0.90;99.90;;;;;;5074682;28;20538;-66
2021/03/06 02:20:49;;;;;;;0.40;0.40;;;-1.00;99.90;;;;;;5075425;28;20633;-66
2021/03/06 02:23:33;;;;;;;1.88;1.77;;;-1.00;99.90;;;;;;5059160;28;20268;-66
2021/03/06 02:26:11;;;;;;;1.25;1.17;;;-1.00;99.90;;;;;;5054782;28;20193;-67
2021/03/06 02:28:39;;;;;;;0.40;0.40;;;-1.10;99.90;;;;;;5066583;28;20176;-66
2021/03/06 02:31:07;;;;;;;0.50;0.50;;;-1.10;99.90;;;;;;5074248;28;20193;-67
2021/03/06 02:33:37;;;;;;;0.40;0.40;;;-1.10;99.90;;;;;;5064008;28;20182;-66
2021/03/06 02:36:08;;;;;;;0.50;0.50;;;-1.10;99.90;;;;;;5053613;28;20185;-67
2021/03/06 02:38:36;;;;;;;0.40;0.40;;;-1.10;99.90;;;;;;5055198;28;20256;-66
2021/03/06 02:41:03;;;;;;;0.40;0.40;;;-1.10;99.90;;;;;;5064189;28;20255;-65
2021/03/06 02:43:30;;;;;;;0.40;0.40;;;-1.10;99.90;;;;;;5071546;28;20180;-66
2021/03/06 02:45:57;;;;;;;0.40;0.40;;;-1.10;99.90;;;;;;5057336;28;20193;-66
2021/03/06 02:48:23;;;;;;;0.40;0.40;;;-1.20;99.90;;;;;;5054571;28;20168;-66
2021/03/06 02:50:53;;;;;;;0.50;0.50;;;-1.20;99.90;;;;;;5069383;28;20272;-67
2021/03/06 02:53:20;;;;;;;0.40;0.40;;;-1.20;99.90;;;;;;5059613;28;20657;-66
2021/03/06 02:55:46;;;;;;;0.40;0.40;;;-1.30;99.90;;;;;;5054049;28;20209;-66
2021/03/06 02:58:40;;;;;;;0.40;0.40;;;-1.30;99.90;;;;;;5054611;28;20663;-67
2021/03/06 03:01:27;;;;;;;0.40;0.40;;;-1.30;99.90;;;;;;5070407;28;20180;-67
2021/03/06 03:04:11;;;;;;;0.40;0.40;;;-1.30;99.90;;;;;;5065270;28;20173;-66
2021/03/06 03:06:38;;;;;;;0.40;0.40;;;-1.30;99.90;;;;;;5066126;28;20196;-66
2021/03/06 03:09:34;;;;;;;0.40;0.40;;;-1.30;99.90;;;;;;5064730;28;20181;-67
2021/03/06 03:12:34;;;;;;;0.40;0.40;;;-1.40;99.90;;;;;;5049613;28;20225;-66
2021/03/06 03:15:11;;;;;;;0.40;0.40;;;-1.40;99.90;;;;;;5041919;28;20263;-67
2021/03/06 03:17:47;;;;;;;0.40;0.40;;;-1.40;99.90;;;;;;5054398;28;20161;-66
2021/03/06 03:20:36;;;;;;;0.40;0.40;;;-1.40;99.90;;;;;;5071243;28;20200;-67
2021/03/06 03:23:36;;;;;;;0.70;0.70;;;-1.40;99.90;;;;;;5053861;28;20181;-68
2021/03/06 03:26:05;;;;;;;0.40;0.40;;;-1.50;99.90;;;;;;5053533;28;20189;-67
2021/03/06 03:28:32;;;;;;;0.60;0.60;;;-1.50;99.90;;;;;;5055809;28;20207;-66
2021/03/06 03:31:00;;;;;;;0.40;0.40;;;-1.50;99.90;;;;;;5072180;28;20180;-67
2021/03/06 03:33:27;;;;;;;0.40;0.40;;;-1.50;99.90;;;;;;5072998;28;20171;-66
2021/03/06 03:35:53;;;;;;;0.40;0.40;;;-1.50;99.90;;;;;;5053333;28;20676;-67
2021/03/06 03:38:21;;;;;;;0.40;0.40;;;-1.50;99.90;;;;;;5062063;28;20184;-66
2021/03/06 03:40:47;;;;;;;0.40;0.40;;;-1.50;99.90;;;;;;5052850;28;20645;-66
2021/03/06 03:43:13;;;;;;;0.40;0.40;;;-1.50;99.90;;;;;;5061821;28;20199;-66
2021/03/06 03:45:39;;;;;;;0.45;0.45;;;-1.50;99.90;;;;;;5073083;28;20216;-67
2021/03/06 03:48:06;;;;;;;0.40;0.40;;;-1.50;99.90;;;;;;5060185;28;20176;-69
2021/03/06 03:50:32;;;;;;;0.40;0.40;;;-1.50;99.90;;;;;;5073411;28;20659;-67
2021/03/06 03:52:58;;;;;;;0.40;0.40;;;-1.50;99.90;;;;;;5070029;28;20213;-67
2021/03/06 03:55:24;;;;;;;0.52;0.52;;;-1.50;99.90;;;;;;5073028;28;20477;-68
2021/03/06 03:57:50;;;;;;;0.40;0.40;;;-1.60;99.90;;;;;;5069755;28;20485;-67
2021/03/06 04:00:18;;;;;;;0.40;0.40;;;-1.60;99.90;;;;;;5053466;28;20169;-68
2021/03/06 04:02:44;;;;;;;1.52;1.48;;;-1.60;99.90;;;;;;5055078;28;20253;-67
2021/03/06 04:05:11;;;;;;;0.40;0.40;;;-1.60;99.90;;;;;;5072897;28;20203;-67
2021/03/06 04:07:50;;;;;;;0.40;0.40;;;-1.60;99.90;;;;;;5071251;28;20173;-68
2021/03/06 04:10:20;;;;;;;0.50;0.50;;;-1.60;99.90;;;;;;5073119;28;20578;-67
2021/03/06 04:12:47;;;;;;;0.43;0.43;;;-1.60;99.90;;;;;;5072260;28;20560;-66
2021/03/06 04:15:15;;;;;;;0.40;0.40;;;-1.70;99.90;;;;;;5052725;28;20264;-66
2021/03/06 04:17:41;;;;;;;0.40;0.40;;;-1.70;99.90;;;;;;5053608;28;20184;-66
2021/03/06 04:20:09;;;;;;;0.40;0.40;;;-1.60;99.90;;;;;;5072879;28;20180;-66
2021/03/06 04:22:35;;;;;;;0.45;0.45;;;-1.60;99.90;;;;;;5067553;28;20214;-67
2021/03/06 04:25:01;;;;;;;0.40;0.40;;;-1.60;99.90;;;;;;5062894;28;20201;-66
2021/03/06 04:27:27;;;;;;;0.40;0.40;;;-1.60;99.90;;;;;;5051790;28;20184;-67
2021/03/06 04:29:52;;;;;;;0.43;0.43;;;-1.60;99.90;;;;;;5059094;28;20506;-67
2021/03/06 04:32:19;;;;;;;0.40;0.40;;;-1.70;99.90;;;;;;5073121;28;20618;-67
2021/03/06 04:34:44;;;;;;;0.40;0.40;;;-1.70;99.90;;;;;;5067687;28;20415;-68
2021/03/06 04:37:10;;;;;;;0.83;0.83;;;-1.70;99.90;;;;;;5056112;28;20229;-68
2021/03/06 04:39:36;;;;;;;0.40;0.40;;;-1.70;99.90;;;;;;5052981;28;20165;-68
2021/03/06 04:42:02;;;;;;;0.40;0.40;;;-1.70;99.90;;;;;;5054290;28;20772;-65
2021/03/06 04:44:27;;;;;;;0.40;0.40;;;-1.70;99.90;;;;;;5072642;28;20168;-68
2021/03/06 04:46:53;;;;;;;0.40;0.40;;;-1.70;99.90;;;;;;5072852;28;20188;-68
2021/03/06 04:49:18;;;;;;;0.40;0.40;;;-1.70;99.90;;;;;;5053003;28;20181;-68
2021/03/06 04:51:44;;;;;;;0.40;0.40;;;-1.70;99.90;;;;;;5053758;28;20557;-68
2021/03/06 04:54:10;;;;;;;0.50;0.50;;;-1.70;99.90;;;;;;5052712;28;20201;-67
2021/03/06 04:56:35;;;;;;;0.40;0.40;;;-1.70;99.90;;;;;;5052590;28;20201;-67
2021/03/06 04:59:01;;;;;;;0.40;0.40;;;-1.80;99.90;;;;;;5070718;28;20211;-68
2021/03/06 05:01:27;;;;;;;0.40;0.40;;;-1.80;99.90;;;;;;5075578;28;20238;-67
2021/03/06 05:03:53;;;;;;;0.40;0.40;;;-1.90;99.90;;;;;;5076197;28;20523;-67
2021/03/06 05:06:18;;;;;;;0.40;0.40;;;-2.00;99.90;;;;;;5071679;28;20752;-66
2021/03/06 05:08:44;;;;;;;0.40;0.40;;;-2.10;99.90;;;;;;5056445;28;20799;-66
2021/03/06 05:11:10;;;;;;;0.40;0.40;;;-2.10;99.90;;;;;;5076182;28;20204;-67
2021/03/06 05:13:36;;;;;;;0.87;0.87;;;-2.10;99.90;;;;;;5060240;28;20424;-66
2021/03/06 05:16:03;;;;;;;0.30;0.30;;;-2.20;99.90;;;;;;5059066;28;20552;-69
2021/03/06 05:18:29;;;;;;;0.40;0.40;;;-2.20;99.90;;;;;;5063150;28;20173;-66
2021/03/06 05:20:55;;;;;;;0.40;0.40;;;-2.20;99.90;;;;;;5056552;28;20538;-66
2021/03/06 05:23:21;;;;;;;0.60;0.60;;;-2.20;99.90;;;;;;5057407;28;20182;-66
2021/03/06 05:25:46;;;;;;;0.47;0.47;;;-2.20;99.90;;;;;;5056313;28;20197;-66
2021/03/06 05:28:12;;;;;;;0.40;0.40;;;-2.20;99.90;;;;;;5068419;28;20638;-67
2021/03/06 05:30:37;;;;;;;0.40;0.40;;;-2.20;99.90;;;;;;5076011;28;20200;-67
2021/03/06 05:33:03;;;;;;;0.40;0.40;;;-2.20;99.90;;;;;;5064567;28;20665;-66
2021/03/06 05:35:29;;;;;;;0.40;0.40;;;-2.30;99.90;;;;;;5055714;28;20229;-68
2021/03/06 05:37:55;;;;;;;0.40;0.40;;;-2.30;99.90;;;;;;5064855;28;20414;-67
2021/03/06 05:40:22;;;;;;;0.40;0.40;;;-2.40;99.90;;;;;;5076254;28;20173;-67
2021/03/06 05:42:48;;;;;;;0.80;0.80;;;-2.40;99.90;;;;;;5075473;28;20263;-67
2021/03/06 05:45:14;;;;;;;0.40;0.40;;;-2.40;99.90;;;;;;5075866;28;20549;-67
2021/03/06 05:47:40;;;;;;;0.40;0.40;;;-2.40;99.90;;;;;;5069043;28;20177;-67
2021/03/06 05:50:07;;;;;;;0.40;0.40;;;-2.50;99.90;;;;;;5075970;28;20986;-67
2021/03/06 05:52:33;;;;;;;0.52;0.52;;;-2.50;99.90;;;;;;5067139;28;20200;-68
2021/03/06 05:55:01;;;;;;;0.40;0.40;;;-2.50;99.90;;;;;;5055209;28;20247;-68
2021/03/06 05:57:27;;;;;;;0.40;0.40;;;-2.50;99.90;;;;;;5060727;28;20914;-66
2021/03/06 05:59:54;;;;;;;0.40;0.40;;;-2.60;99.90;;;;;;5075567;28;20175;-67
2021/03/06 06:02:20;;;;;;;0.47;0.47;;;-2.60;99.90;;;;;;5064978;28;20230;-66
2021/03/06 06:04:46;;;;;;;0.40;0.40;;;-2.50;99.90;;;;;;5054894;28;20166;-66
2021/03/06 06:07:16;;;;;;;0.40;0.40;;;-2.50;99.90;;;;;;5066277;28;20179;-66
2021/03/06 06:09:43;;;;;;;0.45;0.45;;;-2.50;99.90;;;;;;5054166;28;20176;-67
2021/03/06 06:12:09;;;;;;;0.60;0.60;;;-2.40;99.90;;;;;;5062175;28;20314;-67
2021/03/06 06:14:35;;;;;;;0.40;0.40;;;-2.30;99.90;;;;;;5073640;28;20556;-67
2021/03/06 06:17:08;;;;;;;0.40;0.40;;;-2.20;99.90;;;;;;5068461;28;20174;-67
2021/03/06 06:19:35;;;;;;;0.40;0.40;;;-2.00;99.90;;;;;;5063301;28;20430;-68
2021/03/06 06:22:13;;;;;;;0.43;0.43;;;-1.90;99.90;;;;;;5070523;28;20204;-67
2021/03/06 06:24:49;;;;;;;0.40;0.40;;;-1.70;99.90;;;;;;5054728;28;20219;-68
2021/03/06 06:27:30;;;;;;;0.35;0.35;;;-1.60;99.90;;;;;;5060340;28;20183;-66
2021/03/06 06:29:58;;;;;;;0.40;0.40;;;-1.40;99.90;;;;;;5075241;28;20544;-68
2021/03/06 06:32:26;;;;;;;0.40;0.40;;;-1.10;99.90;;;;;;5068522;28;20203;-68
2021/03/06 06:35:09;;;;;;;0.40;0.40;;;-0.80;99.90;;;;;;5054806;28;20638;-67
2021/03/06 06:37:35;;;;;;;0.40;0.40;;;-0.30;99.90;;;;;;5054755;28;20580;-68
2021/03/06 06:40:19;;;;;;;0.40;0.40;;;0.00;99.90;;;;;;5066888;28;20227;-67
2021/03/06 06:42:45;;;;;;;1.08;1.08;;;0.40;99.90;;;;;;5057976;28;20257;-66
2021/03/06 06:45:12;;;;;;;1.50;0.70;;;0.80;99.90;;;;;;5054404;28;20578;-67
2021/03/06 06:47:39;;;;;;;0.60;0.60;;;1.30;99.90;;;;;;5067777;28;20310;-67
2021/03/06 06:50:08;;;;;;;0.40;0.40;;;1.90;99.90;;;;;;5074774;28;20172;-68
2021/03/06 06:52:37;;;;;;;0.68;0.68;;;2.40;99.90;;;;;;5060565;28;20201;-66
2021/03/06 06:55:04;;;;;;;0.40;0.40;;;3.00;99.90;;;;;;5053384;28;20192;-67
2021/03/06 06:57:30;;;;;;;0.30;0.30;;;3.40;99.90;;;;;;5066031;28;20562;-67
2021/03/06 07:00:00;;;;;;;0.60;0.60;;;3.50;99.40;;;;;;5061380;28;20173;-70
2021/03/06 07:02:27;;;;;;;0.50;0.50;;;3.80;97.60;;;;;;5073855;28;20268;-68
2021/03/06 07:04:59;;;;;;;0.30;0.30;;;4.00;96.80;;;;;;5064989;28;20536;-69
2021/03/06 07:07:26;;;;;;;0.30;0.30;;;4.20;96.40;;;;;;5053047;28;20268;-68
2021/03/06 07:10:01;;;;;;;0.30;0.30;;;4.50;96.90;;;;;;5053787;28;20205;-70
2021/03/06 07:12:29;;;;;;;1.75;1.65;;;4.70;95.70;;;;;;5073777;28;20250;-69
2021/03/06 07:14:55;;;;;;;0.30;0.30;;;5.10;95.30;;;;;;5056853;28;20231;-69
2021/03/06 07:17:21;;;;;;;0.30;0.30;;;5.50;93.40;;;;;;5066312;28;20250;-65
2021/03/06 07:19:48;;;;;;;0.30;0.30;;;6.00;92.50;;;;;;5073683;28;20700;-69
2021/03/06 07:22:14;;;;;;;0.30;0.30;;;6.40;92.30;;;;;;5055121;28;20491;-69
2021/03/06 07:24:39;;;;;;;0.43;0.43;;;6.70;89.60;;;;;;5054105;28;20173;-71
2021/03/06 07:27:06;;;;;;;0.30;0.30;;;7.00;91.40;;;;;;5055326;28;20179;-71
2021/03/06 07:29:31;;;;;;;0.52;0.47;;;7.70;90.40;;;;;;5068697;28;20429;-74
2021/03/06 07:31:59;;;;;;;0.30;0.30;;;8.20;86.60;;;;;;5055386;28;20673;-73
2021/03/06 07:34:27;;;;;;;0.43;0.43;;;8.80;84.90;;;;;;5053556;28;20223;-72
2021/03/06 07:37:05;;;;;;;0.40;0.40;;;9.10;84.10;;;;;;5060045;28;20432;-70
2021/03/06 07:39:43;;;;;;;0.30;0.30;;;9.30;80.10;;;;;;5053625;28;20404;-69
2021/03/06 07:42:29;;;;;;;0.40;0.40;;;9.50;77.90;;;;;;5071443;28;20447;-72
2021/03/06 07:44:56;;;;;;;0.40;0.40;;;9.80;78.60;;;;;;5068741;28;20445;-71
2021/03/06 07:47:29;;;;;;;0.50;0.40;;;10.10;76.90;;;;;;5063447;28;20425;-68
2021/03/06 07:49:58;;;;;;;1.20;0.50;;;10.80;75.70;;;;;;5056858;28;20421;-65
2021/03/06 07:52:26;;;;;;;1.50;0.30;;;11.00;71.50;;;;;;5057151;28;20887;-68
2021/03/06 07:54:52;;;;;;;1.90;0.40;;;11.40;69.70;;;;;;5058191;28;20830;-69
2021/03/06 07:57:18;;;;;;;2.27;0.57;;;11.70;69.10;;;;;;5063496;28;20439;-69
2021/03/06 07:59:55;;;;;;;2.40;0.50;;;12.00;65.40;;;;;;5072592;28;20409;-70
2021/03/06 08:02:33;;;;;;;2.30;0.40;;;12.10;66.20;;;;;;5073180;28;20285;-73
2021/03/06 08:04:58;;;;;;;3.17;0.80;;;12.40;62.50;;;;;;5062547;28;20446;-72
2021/03/06 08:07:40;;;;;;;2.40;0.30;;;12.70;63.70;;;;;;5069625;28;20782;-69
2021/03/06 08:10:07;;;;;;;2.50;0.47;;;13.00;61.20;;;;;;5053416;28;20177;-70
2021/03/06 08:12:34;;;;;;;2.50;0.70;;;13.10;60.80;;;;;;5053187;28;20466;-68
2021/03/06 08:15:30;;;;;;;2.40;0.30;;;13.30;59.90;;;;;;5052906;28;20513;-67
2021/03/06 08:18:00;;;;;;;2.50;0.30;;;13.90;59.70;;;;;;5058520;28;20506;-66
2021/03/06 08:20:32;;;;;;;2.83;1.00;;;14.10;56.50;;;;;;5063735;28;20784;-70
2021/03/06 08:23:19;;;;;;;2.67;0.40;;;13.90;57.80;;;;;;5053064;28;20464;-67
2021/03/06 08:26:06;;;;;;;2.70;0.50;;;14.00;58.50;;;;;;5055820;28;20533;-69
2021/03/06 08:28:31;;;;;;;3.60;1.53;;;14.20;57.50;;;;;;5052312;28;20419;-68
2021/03/06 08:31:36;;;;;;;2.70;0.30;;;14.30;56.50;;;;;;5058863;28;20449;-69
2021/03/06 08:34:34;;;;;;;2.70;0.50;;;14.70;57.20;;;;;;5074742;28;20284;-68
2021/03/06 08:37:15;;;;;;;2.90;0.67;;;15.30;54.50;;;;;;5038328;28;20434;-68
2021/03/06 08:39:53;;;;;;;2.80;0.67;;;15.00;54.60;;;;;;5058797;28;20776;-68
2021/03/06 08:42:25;;;;;;;2.80;0.30;;;15.00;54.50;;;;;;5056976;28;20401;-70
2021/03/06 08:44:52;;;;;;;3.00;0.50;;;15.10;55.50;;;;;;5058666;28;20396;-67
2021/03/06 08:47:27;;;;;;;2.80;0.30;;;15.40;55.30;;;;;;5077075;28;20397;-68
2021/03/06 08:49:55;;;;;;;2.80;0.53;;;15.70;55.00;;;;;;5073954;28;20420;-66
2021/03/06 08:52:26;;;;;;;2.70;0.30;;;15.80;51.80;;;;;;5056811;28;20472;-67
2021/03/06 08:54:51;;;;;;;2.80;0.50;;;15.70;52.90;;;;;;5060043;28;20440;-68
2021/03/06 08:57:29;;;;;;;2.70;0.40;;;15.90;51.70;;;;;;5056463;28;20418;-68
2021/03/06 08:59:56;;;;;;;2.70;0.40;;;15.90;50.30;;;;;;5057548;28;20533;-68
2021/03/06 09:02:33;;;;;;;2.67;0.30;;;15.80;50.70;;;;;;5075256;28;20475;-68
2021/03/06 09:05:20;;;;;;;2.70;0.40;;;15.70;49.90;;;;;;5074879;28;20465;-65
2021/03/06 09:07:48;;;;;;;2.80;0.67;;;15.60;50.70;;;;;;5056514;28;20451;-68
2021/03/06 09:10:20;;;;;;;2.80;0.60;;;15.50;50.00;;;;;;5058428;28;20454;-69
2021/03/06 09:12:48;;;;;;;2.67;0.40;;;15.40;49.30;;;;;;5076245;28;20472;-69
2021/03/06 09:15:29;;;;;;;2.80;0.67;;;15.40;49.30;;;;;;5070923;28;20486;-68
2021/03/06 09:17:55;;;;;;;2.70;0.37;;;15.40;48.90;;;;;;5075899;28;20425;-67
2021/03/06 09:20:21;;;;;;;2.90;0.50;;;15.40;48.70;;;;;;5069284;28;20948;-69
2021/03/06 09:22:49;;;;;;;2.60;0.40;;;15.20;49.30;;;;;;5056322;28;20450;-70
2021/03/06 09:25:30;;;;;;;3.37;1.43;;;15.30;49.30;;;;;;5064333;28;20462;-67
2021/03/06 09:27:57;;;;;;;2.60;0.30;;;15.00;48.70;;;;;;5075861;28;20409;-69
2021/03/06 09:30:42;;;;;;;2.93;0.60;;;15.10;48.90;;;;;;5068516;28;20421;-68
2021/03/06 09:33:31;;;;;;;2.50;0.30;;;15.30;49.20;;;;;;5056161;28;20455;-70
2021/03/06 09:35:58;;;;;;;2.60;0.30;;;15.40;48.30;;;;;;5064358;28;20523;-68
2021/03/06 09:38:25;;;;;;;2.90;0.77;;;15.30;47.30;;;;;;5076060;28;20411;-68
2021/03/06 09:40:51;;;;;;;3.10;0.67;;;15.20;47.70;;;;;;5063537;28;20418;-69
2021/03/06 09:43:24;;;;;;;2.60;0.57;;;15.10;47.70;;;;;;5055165;28;20462;-67
2021/03/06 09:45:50;;;;;;;2.60;0.50;;;14.90;47.80;;;;;;5063303;28;20799;-70
2021/03/06 09:48:15;;;;;;;2.60;0.50;;;14.70;48.70;;;;;;5055716;28;20404;-68
2021/03/06 09:50:45;;;;;;;2.70;0.83;;;14.90;48.90;;;;;;5060836;28;20177;-68
2021/03/06 09:53:11;;;;;;;2.60;0.60;;;14.80;48.10;;;;;;5055935;28;20201;-66
2021/03/06 09:55:36;;;;;;;2.60;0.53;;;14.80;48.70;;;;;;5058780;28;20473;-68
2021/03/06 09:58:23;;;;;;;2.70;0.70;;;14.90;47.80;;;;;;5075849;28;20165;-68
2021/03/06 10:00:50;;;;;;;3.10;1.13;;;14.90;47.50;;;;;;5060493;28;20175;-67
2021/03/06 10:03:33;;;;;;;3.33;0.73;;;15.10;47.70;;;;;;5065587;28;20476;-67
2021/03/06 10:06:02;;;;;;;3.50;1.03;;;15.10;48.20;;;;;;5058440;28;20447;-69
2021/03/06 10:08:31;;;;;;;2.40;0.30;;;15.00;47.60;;;;;;5067290;28;20457;-69
2021/03/06 10:11:05;;;;;;;2.40;0.43;;;14.70;46.60;;;;;;5071822;28;20754;-70
2021/03/06 10:13:31;;;;;;;2.40;0.30;;;14.30;46.80;;;;;;5074749;28;20415;-66
2021/03/06 10:15:59;;;;;;;2.40;0.40;;;14.30;47.90;;;;;;5056633;28;20439;-68
2021/03/06 10:18:27;;;;;;;2.37;0.40;;;14.50;47.30;;;;;;5069655;28;20434;-68
2021/03/06 10:20:53;;;;;;;4.93;0.80;;;14.40;47.60;;;;;;5073656;28;20472;-69
2021/03/06 10:23:32;;;;;;;2.33;0.37;;;14.40;48.00;;;;;;5058482;28;20428;-72
2021/03/06 10:26:19;;;;;;;4.20;1.03;;;14.30;47.30;;;;;;5058244;28;20716;-69
2021/03/06 10:28:46;;;;;;;2.37;0.50;;;14.30;48.00;;;;;;5074571;28;20418;-68
2021/03/06 10:31:31;;;;;;;2.50;0.73;;;14.30;47.00;;;;;;5073018;28;20423;-68
2021/03/06 10:33:58;;;;;;;2.50;0.50;;;14.20;47.30;;;;;;5065942;28;20440;-69
2021/03/06 10:36:24;;;;;;;2.30;0.30;;;13.90;47.20;;;;;;5068612;28;20938;-70
2021/03/06 10:39:10;;;;;;;2.87;0.60;;;13.70;47.50;;;;;;5055462;28;20434;-68
2021/03/06 10:41:35;;;;;;;2.30;0.50;;;13.60;47.20;;;;;;5074889;28;20414;-68
2021/03/06 10:44:01;;;;;;;2.20;0.40;;;13.40;46.80;;;;;;5073699;28;20421;-69
2021/03/06 10:46:28;;;;;;;2.87;1.17;;;13.20;47.40;;;;;;5065101;28;20202;-70
2021/03/06 10:49:08;;;;;;;2.40;0.60;;;13.20;47.40;;;;;;5074501;28;20516;-70
2021/03/06 10:51:43;;;;;;;2.30;0.30;;;12.70;47.10;;;;;;5054498;28;20453;-69
2021/03/06 10:54:09;;;;;;;2.27;0.30;;;12.40;47.80;;;;;;5053772;28;20415;-70
2021/03/06 10:56:36;;;;;;;2.30;0.30;;;12.30;49.40;;;;;;5073736;28;20450;-70
2021/03/06 10:59:02;;;;;;;2.30;0.40;;;12.50;48.20;;;;;;5071400;28;20440;-70
2021/03/06 11:01:34;;;;;;;2.30;0.30;;;12.80;47.20;;;;;;5073794;28;20427;-69
2021/03/06 11:04:00;;;;;;;2.40;0.77;;;12.70;46.80;;;;;;5073882;28;20447;-69
2021/03/06 11:06:26;;;;;;;2.30;0.50;;;12.60;48.30;;;;;;5063073;28;20448;-69
2021/03/06 11:09:05;;;;;;;2.30;0.40;;;12.50;47.40;;;;;;5063449;28;20235;-69
2021/03/06 11:11:31;;;;;;;2.30;0.37;;;12.40;47.70;;;;;;5073907;28;20457;-69
2021/03/06 11:13:57;;;;;;;2.23;0.30;;;12.30;46.90;;;;;;5073500;28;20771;-70
2021/03/06 11:16:40;;;;;;;2.63;0.80;;;12.00;47.00;;;;;;5054679;28;20681;-71
2021/03/06 11:19:07;;;;;;;2.23;0.30;;;11.80;47.50;;;;;;5055117;28;20180;-70
2021/03/06 11:21:33;;;;;;;2.23;0.30;;;11.80;48.40;;;;;;5053909;28;20470;-71
2021/03/06 11:23:59;;;;;;;2.30;0.43;;;11.70;48.00;;;;;;5065514;28;20426;-69
2021/03/06 11:26:25;;;;;;;2.30;0.40;;;11.60;49.10;;;;;;5073616;28;20435;-71
2021/03/06 11:28:53;;;;;;;2.30;0.50;;;11.10;47.90;;;;;;5073921;28;20408;-71
2021/03/06 11:31:19;;;;;;;2.20;0.30;;;10.50;48.60;;;;;;5072926;28;20473;-69
2021/03/06 11:33:45;;;;;;;2.20;0.30;;;9.90;50.00;;;;;;5073479;28;20411;-70
2021/03/06 11:36:10;;;;;;;2.30;0.50;;;9.30;51.70;;;;;;5055295;28;20232;-71
2021/03/06 11:38:36;;;;;;;2.60;0.83;;;9.10;50.10;;;;;;5052761;28;20181;-69
2021/03/06 11:41:02;;;;;;;2.70;0.70;;;8.70;52.10;;;;;;5069674;28;20707;-70
2021/03/06 11:43:28;;;;;;;2.50;0.40;;;8.50;52.00;;;;;;5073535;28;20203;-68
2021/03/06 11:45:54;;;;;;;2.50;0.40;;;8.30;51.00;;;;;;5057527;28;20200;-69
2021/03/06 11:48:20;;;;;;;2.60;0.65;;;8.00;51.50;;;;;;5055775;28;20431;-68
2021/03/06 11:50:49;;;;;;;2.50;0.40;;;7.80;51.60;;;;;;5072653;28;20218;-68
2021/03/06 11:53:15;;;;;;;2.50;0.40;;;7.70;52.20;;;;;;5073189;28;20206;-70
2021/03/06 11:55:41;;;;;;;2.50;0.40;;;7.70;53.10;;;;;;5040606;28;20303;-70
2021/03/06 11:58:07;;;;;;;2.80;0.80;;;7.70;52.50;;;;;;5053613;28;20252;-71
2021/03/06 12:00:35;;;;;;;2.58;0.50;;;7.60;52.70;;;;;;5064563;28;20415;-70
2021/03/06 12:03:01;;;;;;;2.50;0.40;;;7.50;52.50;;;;;;5069204;28;20192;-72
2021/03/06 12:05:27;;;;;;;2.55;0.50;;;7.40;52.90;;;;;;5061516;28;20294;-70
2021/03/06 12:07:53;;;;;;;2.60;0.50;;;7.40;52.30;;;;;;5071468;28;20297;-72
2021/03/06 12:10:21;;;;;;;2.50;0.40;;;7.40;52.10;;;;;;5069332;28;20193;-71
2021/03/06 12:12:48;;;;;;;2.50;0.40;;;7.30;53.40;;;;;;5070464;28;20290;-70
2021/03/06 12:15:19;;;;;;;2.55;0.40;;;7.30;54.50;;;;;;5060415;28;20199;-75
2021/03/06 12:17:45;;;;;;;2.50;0.40;;;7.40;53.80;;;;;;5051116;28;20667;-72
2021/03/06 12:20:13;;;;;;;2.60;0.63;;;7.40;52.60;;;;;;5061916;28;20693;-72
2021/03/06 12:22:40;;;;;;;2.53;0.40;;;7.50;52.50;;;;;;5051247;28;20195;-74
2021/03/06 12:25:07;;;;;;;2.50;0.30;;;7.50;53.60;;;;;;5061219;28;20200;-69
2021/03/06 12:27:34;;;;;;;2.50;0.40;;;7.50;53.70;;;;;;5051674;28;20486;-68
2021/03/06 12:30:06;;;;;;;2.58;0.40;;;7.60;52.10;;;;;;5057873;28;20178;-72
2021/03/06 12:32:33;;;;;;;2.50;0.30;;;7.60;52.80;;;;;;5056585;28;20202;-73
2021/03/06 12:35:01;;;;;;;2.50;0.30;;;7.50;52.60;;;;;;5058185;28;20285;-73
2021/03/06 12:37:26;;;;;;;2.50;0.35;;;7.60;51.80;;;;;;5067464;28;20190;-72
2021/03/06 12:39:52;;;;;;;2.60;0.77;;;7.60;53.30;;;;;;5062023;28;20254;-71
2021/03/06 12:42:17;;;;;;;2.53;0.47;;;7.60;53.00;;;;;;5051502;28;20318;-70
2021/03/06 12:44:43;;;;;;;2.50;0.40;;;7.60;53.10;;;;;;5052366;28;20183;-69
2021/03/06 12:47:10;;;;;;;2.50;0.40;;;7.50;52.80;;;;;;5052892;28;20191;-70
2021/03/06 12:49:36;;;;;;;2.55;0.40;;;7.50;53.00;;;;;;5064053;28;20188;-71
2021/03/06 12:52:01;;;;;;;2.60;0.60;;;7.50;51.90;;;;;;5072798;28;20585;-74
2021/03/06 12:54:29;;;;;;;2.50;0.40;;;7.50;52.80;;;;;;5061128;28;20182;-72
2021/03/06 12:56:54;;;;;;;2.50;0.50;;;7.50;52.60;;;;;;5052422;28;20445;-71
2021/03/06 12:59:20;;;;;;;2.80;0.60;;;7.60;53.20;;;;;;5053410;28;20662;-69
2021/03/06 13:01:46;;;;;;;2.50;0.40;;;7.60;52.20;;;;;;5052477;28;20447;-76